Private Wetterstation Wechselburg
Wetterdaten: Freitag, 17.12.2021
Datum Zeit Temp. +2m Bodentemp. Temp.+5cm Temp. Wind Windchill X Diff Temp. Feuchte +2m Feuchte +5cm Luftdruck Regen Wind Richtung Richtung Sonnenschein Taupunkt Windchill Windben
17.12.2021 00:00 2,1 C 9,8 C 2,8 C 3,7 C 3,7 C 1,6 C 88 % 95 % 1038,2 hPa 0,0 l/m 0,0 km/h (0 Bft) SO 135 0 min 0,3 C 3,7 C 0,0 km/h (0 Bft)
17.12.2021 00:05 2,1 C 9,8 C 2,8 C 3,8 C 3,8 C 1,7 C 88 % 95 % 1038,2 hPa 0,0 l/m 0,0 km/h (0 Bft) SO 135 0 min 0,3 C 3,8 C 0,0 km/h (0 Bft)
17.12.2021 00:10 2,2 C 9,8 C 2,8 C 3,9 C 3,9 C 1,7 C 89 % 95 % 1038,2 hPa 0,0 l/m 0,0 km/h (0 Bft) SO 135 0 min 0,6 C 3,9 C 0,0 km/h (0 Bft)
17.12.2021 00:15 2,2 C 9,8 C 2,8 C 3,8 C 3,8 C 1,6 C 89 % 95 % 1038,2 hPa 0,0 l/m 0,0 km/h (0 Bft) SO 135 0 min 0,6 C 3,8 C 0,0 km/h (0 Bft)
17.12.2021 00:20 2,3 C 9,8 C 2,7 C 3,8 C 3,8 C 1,5 C 89 % 95 % 1038,2 hPa 0,0 l/m 0,0 km/h (0 Bft) SW 225 0 min 0,7 C 3,8 C 0,0 km/h (0 Bft)
17.12.2021 00:25 2,3 C 9,8 C 2,8 C 3,7 C 3,7 C 1,4 C 89 % 95 % 1038,2 hPa 0,0 l/m 0,0 km/h (0 Bft) O-SO 112 0 min 0,7 C 3,7 C 0,0 km/h (0 Bft)
17.12.2021 00:30 2,4 C 9,8 C 2,7 C 3,6 C 3,6 C 1,2 C 89 % 95 % 1037,8 hPa 0,0 l/m 0,0 km/h (0 Bft) O-SO 112 0 min 0,8 C 3,6 C 0,0 km/h (0 Bft)
17.12.2021 00:35 2,4 C 9,8 C 2,8 C 3,8 C 3,8 C 1,4 C 89 % 95 % 1037,8 hPa 0,0 l/m 0,0 km/h (0 Bft) SO 135 0 min 0,8 C 3,8 C 0,0 km/h (0 Bft)
17.12.2021 00:40 2,5 C 9,8 C 3,0 C 4,0 C 4,0 C 1,5 C 89 % 95 % 1037,8 hPa 0,0 l/m 0,0 km/h (0 Bft) S 180 0 min 0,9 C 4,0 C 0,0 km/h (0 Bft)
17.12.2021 00:45 2,5 C 9,8 C 3,1 C 4,1 C 4,1 C 1,6 C 89 % 95 % 1037,8 hPa 0,0 l/m 0,0 km/h (0 Bft) SO 135 0 min 0,9 C 4,1 C 0,0 km/h (0 Bft)
17.12.2021 00:50 2,6 C 9,7 C 3,1 C 4,3 C 4,3 C 1,7 C 89 % 95 % 1037,8 hPa 0,0 l/m 0,0 km/h (0 Bft) S-SO 157 0 min 1,0 C 4,3 C 0,0 km/h (0 Bft)
17.12.2021 00:55 2,7 C 9,7 C 3,1 C 4,1 C 4,1 C 1,4 C 89 % 95 % 1037,8 hPa 0,0 l/m 0,0 km/h (0 Bft) S 180 0 min 1,1 C 4,1 C 0,0 km/h (0 Bft)
17.12.2021 01:00 2,7 C 9,7 C 3,1 C 4,1 C 4,1 C 1,4 C 88 % 95 % 1037,8 hPa 0,0 l/m 0,0 km/h (0 Bft) SO 135 0 min 0,9 C 4,1 C 0,0 km/h (0 Bft)
17.12.2021 01:05 2,6 C 9,7 C 3,1 C 4,1 C 4,1 C 1,5 C 89 % 95 % 1037,8 hPa 0,0 l/m 0,0 km/h (0 Bft) SO 135 0 min 1,0 C 4,1 C 0,0 km/h (0 Bft)
17.12.2021 01:10 2,7 C 9,7 C 3,2 C 4,1 C 4,1 C 1,4 C 88 % 95 % 1037,8 hPa 0,0 l/m 0,0 km/h (0 Bft) SO 135 0 min 0,9 C 4,1 C 0,0 km/h (0 Bft)
17.12.2021 01:15 2,7 C 9,7 C 3,4 C 4,3 C 4,3 C 1,6 C 88 % 95 % 1037,8 hPa 0,0 l/m 0,0 km/h (0 Bft) S-SW 202 0 min 0,9 C 4,3 C 0,0 km/h (0 Bft)
17.12.2021 01:20 2,7 C 9,7 C 3,5 C 4,4 C 4,4 C 1,7 C 88 % 95 % 1037,8 hPa 0,0 l/m 0,0 km/h (0 Bft) S-SW 202 0 min 0,9 C 4,4 C 0,0 km/h (0 Bft)
17.12.2021 01:25 2,8 C 9,7 C 3,6 C 4,5 C 4,5 C 1,7 C 88 % 95 % 1037,8 hPa 0,0 l/m 0,0 km/h (0 Bft) W 270 0 min 1,0 C 4,5 C 2,1 km/h (1 Bft)
17.12.2021 01:30 2,9 C 9,7 C 3,7 C 4,6 C 4,6 C 1,7 C 88 % 95 % 1038,0 hPa 0,0 l/m 0,2 km/h (0 Bft) S-SW 202 0 min 1,1 C 4,6 C 0,0 km/h (0 Bft)
17.12.2021 01:35 2,9 C 9,6 C 3,8 C 4,7 C 4,7 C 1,8 C 88 % 95 % 1038,0 hPa 0,0 l/m 0,8 km/h (0 Bft) SW 225 0 min 1,1 C 4,7 C 4,5 km/h (1 Bft)
17.12.2021 01:40 2,9 C 9,6 C 3,9 C 4,7 C 4,7 C 1,8 C 88 % 95 % 1038,0 hPa 0,0 l/m 1,0 km/h (0 Bft) W-SW 247 0 min 1,1 C 4,7 C 2,1 km/h (1 Bft)
17.12.2021 01:45 3,1 C 9,6 C 3,9 C 4,7 C 4,7 C 1,6 C 88 % 95 % 1038,0 hPa 0,0 l/m 1,6 km/h (1 Bft) SW 225 0 min 1,3 C 4,7 C 0,0 km/h (0 Bft)
17.12.2021 01:50 3,0 C 9,6 C 4,0 C 4,7 C 4,7 C 1,7 C 88 % 95 % 1038,0 hPa 0,0 l/m 1,6 km/h (1 Bft) SW 225 0 min 1,2 C 4,7 C 0,0 km/h (0 Bft)
17.12.2021 01:55 3,1 C 9,7 C 4,0 C 4,8 C 4,8 C 1,7 C 88 % 95 % 1038,0 hPa 0,0 l/m 0,3 km/h (0 Bft) S-SO 157 0 min 1,3 C 4,8 C 0,0 km/h (0 Bft)
17.12.2021 02:00 3,1 C 9,7 C 4,1 C 4,8 C 4,8 C 1,7 C 88 % 95 % 1038,0 hPa 0,0 l/m 0,0 km/h (0 Bft) SO 135 0 min 1,3 C 4,8 C 0,0 km/h (0 Bft)
17.12.2021 02:05 3,1 C 9,7 C 4,1 C 5,0 C 5,0 C 1,9 C 88 % 95 % 1038,0 hPa 0,0 l/m 0,2 km/h (0 Bft) O-NO 67 0 min 1,3 C 5,0 C 0,0 km/h (0 Bft)
17.12.2021 02:10 3,1 C 9,7 C 4,2 C 5,0 C 5,0 C 1,9 C 88 % 95 % 1037,7 hPa 0,0 l/m 0,3 km/h (0 Bft) O 90 0 min 1,3 C 5,0 C 0,0 km/h (0 Bft)
17.12.2021 02:15 3,2 C 9,7 C 4,2 C 5,0 C 5,0 C 1,8 C 88 % 95 % 1037,7 hPa 0,0 l/m 0,3 km/h (0 Bft) O-NO 67 0 min 1,4 C 5,0 C 0,0 km/h (0 Bft)
17.12.2021 02:20 3,3 C 9,6 C 4,3 C 5,1 C 5,1 C 1,8 C 88 % 95 % 1037,7 hPa 0,0 l/m 0,2 km/h (0 Bft) O-SO 112 0 min 1,5 C 5,1 C 0,0 km/h (0 Bft)
17.12.2021 02:25 3,3 C 9,7 C 4,3 C 5,2 C 5,2 C 1,9 C 88 % 95 % 1037,7 hPa 0,0 l/m 0,0 km/h (0 Bft) NO 45 0 min 1,5 C 5,2 C 0,0 km/h (0 Bft)
17.12.2021 02:30 3,3 C 9,7 C 4,3 C 5,2 C 5,2 C 1,9 C 88 % 95 % 1038,1 hPa 0,0 l/m 0,0 km/h (0 Bft) NO 45 0 min 1,5 C 5,2 C 0,0 km/h (0 Bft)
17.12.2021 02:35 3,3 C 9,7 C 4,3 C 5,2 C 5,2 C 1,9 C 88 % 95 % 1038,1 hPa 0,0 l/m 0,0 km/h (0 Bft) NO 45 0 min 1,5 C 5,2 C 0,0 km/h (0 Bft)
17.12.2021 02:40 3,3 C 9,7 C 4,3 C 5,2 C 5,2 C 1,9 C 88 % 95 % 1038,1 hPa 0,0 l/m 0,3 km/h (0 Bft) W-SW 247 0 min 1,5 C 5,2 C 0,0 km/h (0 Bft)
17.12.2021 02:45 3,2 C 9,7 C 4,2 C 5,0 C 5,0 C 1,8 C 88 % 95 % 1038,1 hPa 0,0 l/m 0,3 km/h (0 Bft) W-SW 247 0 min 1,4 C 5,0 C 0,0 km/h (0 Bft)
17.12.2021 02:50 3,2 C 9,6 C 4,1 C 5,0 C 5,0 C 1,8 C 88 % 95 % 1038,1 hPa 0,0 l/m 0,0 km/h (0 Bft) W-SW 247 0 min 1,4 C 5,0 C 0,0 km/h (0 Bft)
17.12.2021 02:55 3,2 C 9,7 C 4,1 C 5,0 C 5,0 C 1,8 C 88 % 95 % 1038,1 hPa 0,0 l/m 0,0 km/h (0 Bft) W-SW 247 0 min 1,4 C 5,0 C 0,0 km/h (0 Bft)
17.12.2021 03:00 3,3 C 9,7 C 4,0 C 4,8 C 4,8 C 1,5 C 88 % 95 % 1038,1 hPa 0,0 l/m 0,0 km/h (0 Bft) W 270 0 min 1,5 C 4,8 C 0,0 km/h (0 Bft)
17.12.2021 03:05 3,3 C 9,7 C 3,7 C 4,4 C 4,4 C 1,1 C 88 % 95 % 1038,1 hPa 0,0 l/m 0,0 km/h (0 Bft) W 270 0 min 1,5 C 4,4 C 0,0 km/h (0 Bft)
17.12.2021 03:10 3,2 C 9,6 C 3,5 C 4,1 C 4,1 C 0,9 C 88 % 95 % 1037,2 hPa 0,0 l/m 0,0 km/h (0 Bft) SW 225 0 min 1,4 C 4,1 C 0,0 km/h (0 Bft)
17.12.2021 03:15 3,1 C 9,6 C 3,2 C 3,7 C 3,7 C 0,6 C 88 % 95 % 1037,2 hPa 0,0 l/m 0,0 km/h (0 Bft) SW 225 0 min 1,3 C 3,7 C 0,0 km/h (0 Bft)
17.12.2021 03:20 3,1 C 9,6 C 2,9 C 3,6 C 3,6 C 0,5 C 88 % 95 % 1037,2 hPa 0,0 l/m 0,0 km/h (0 Bft) SW 225 0 min 1,3 C 3,6 C 0,0 km/h (0 Bft)
17.12.2021 03:25 2,8 C 9,6 C 2,7 C 3,4 C 3,4 C 0,6 C 88 % 95 % 1037,2 hPa 0,0 l/m 0,0 km/h (0 Bft) SW 225 0 min 1,0 C 3,4 C 0,0 km/h (0 Bft)
17.12.2021 03:30 2,9 C 9,7 C 2,5 C 3,2 C 3,2 C 0,3 C 89 % 95 % 1037,5 hPa 0,0 l/m 0,0 km/h (0 Bft) SW 225 0 min 1,3 C 3,2 C 0,0 km/h (0 Bft)
17.12.2021 03:35 2,7 C 9,7 C 2,3 C 3,0 C 3,0 C 0,3 C 89 % 94 % 1037,5 hPa 0,0 l/m 0,0 km/h (0 Bft) SW 225 0 min 1,1 C 3,0 C 0,0 km/h (0 Bft)
17.12.2021 03:40 2,7 C 9,7 C 2,2 C 3,0 C 3,0 C 0,3 C 89 % 94 % 1037,5 hPa 0,0 l/m 0,0 km/h (0 Bft) SW 225 0 min 1,1 C 3,0 C 0,0 km/h (0 Bft)
17.12.2021 03:45 2,7 C 9,7 C 2,2 C 3,0 C 3,0 C 0,3 C 89 % 94 % 1037,5 hPa 0,0 l/m 0,0 km/h (0 Bft) SW 225 0 min 1,1 C 3,0 C 0,0 km/h (0 Bft)
17.12.2021 03:50 2,7 C 9,5 C 2,3 C 3,3 C 3,3 C 0,6 C 89 % 94 % 1038,1 hPa 0,0 l/m 0,0 km/h (0 Bft) SW 225 0 min 1,1 C 3,3 C 0,0 km/h (0 Bft)
17.12.2021 03:55 2,5 C 9,7 C 2,5 C 3,6 C 3,6 C 1,1 C 89 % 95 % 1038,1 hPa 0,0 l/m 0,0 km/h (0 Bft) SW 225 0 min 0,9 C 3,6 C 0,0 km/h (0 Bft)
17.12.2021 04:00 2,5 C 9,7 C 2,7 C 3,8 C 3,8 C 1,3 C 89 % 95 % 1038,1 hPa 0,0 l/m 0,0 km/h (0 Bft) SW 225 0 min 0,9 C 3,8 C 0,0 km/h (0 Bft)
17.12.2021 04:05 2,5 C 9,7 C 2,9 C 4,0 C 4,0 C 1,5 C 89 % 95 % 1038,1 hPa 0,0 l/m 0,0 km/h (0 Bft) SW 225 0 min 0,9 C 4,0 C 0,0 km/h (0 Bft)
17.12.2021 04:10 2,5 C 9,7 C 3,0 C 4,0 C 4,0 C 1,5 C 89 % 95 % 1038,1 hPa 0,0 l/m 0,0 km/h (0 Bft) SW 225 0 min 0,9 C 4,0 C 0,0 km/h (0 Bft)
17.12.2021 04:15 2,5 C 9,7 C 3,1 C 4,0 C 4,0 C 1,5 C 89 % 95 % 1038,1 hPa 0,0 l/m 0,0 km/h (0 Bft) SW 225 0 min 0,9 C 4,0 C 0,0 km/h (0 Bft)
17.12.2021 04:20 2,5 C 9,7 C 3,0 C 3,9 C 3,9 C 1,4 C 89 % 95 % 1038,1 hPa 0,0 l/m 0,0 km/h (0 Bft) SW 225 0 min 0,9 C 3,9 C 0,0 km/h (0 Bft)
17.12.2021 04:25 2,4 C 9,7 C 2,8 C 3,7 C 3,7 C 1,3 C 89 % 95 % 1038,1 hPa 0,0 l/m 0,0 km/h (0 Bft) SW 225 0 min 0,8 C 3,7 C 0,0 km/h (0 Bft)
17.12.2021 04:30 2,4 C 9,5 C 2,9 C 3,6 C 3,6 C 1,2 C 89 % 95 % 1037,9 hPa 0,0 l/m 0,0 km/h (0 Bft) SW 225 0 min 0,8 C 3,6 C 0,0 km/h (0 Bft)
17.12.2021 04:35 2,4 C 9,5 C 2,9 C 3,6 C 3,6 C 1,2 C 89 % 95 % 1037,9 hPa 0,0 l/m 0,0 km/h (0 Bft) SW 225 0 min 0,8 C 3,6 C 0,0 km/h (0 Bft)
17.12.2021 04:40 2,5 C 9,5 C 2,9 C 3,6 C 3,6 C 1,1 C 89 % 95 % 1037,9 hPa 0,0 l/m 0,0 km/h (0 Bft) SW 225 0 min 0,9 C 3,6 C 0,0 km/h (0 Bft)
17.12.2021 04:45 2,4 C 9,7 C 3,0 C 3,6 C 3,6 C 1,2 C 89 % 95 % 1037,9 hPa 0,0 l/m 0,0 km/h (0 Bft) SW 225 0 min 0,8 C 3,6 C 0,0 km/h (0 Bft)
17.12.2021 04:50 2,4 C 9,5 C 3,1 C 3,8 C 3,8 C 1,4 C 89 % 95 % 1037,2 hPa 0,0 l/m 0,0 km/h (0 Bft) SW 225 0 min 0,8 C 3,8 C 1,8 km/h (1 Bft)
17.12.2021 04:55 2,5 C 9,5 C 3,1 C 3,8 C 3,8 C 1,3 C 89 % 95 % 1037,2 hPa 0,0 l/m 0,5 km/h (0 Bft) O-NO 67 0 min 0,9 C 3,8 C 1,9 km/h (1 Bft)
17.12.2021 05:00 2,4 C 9,5 C 3,2 C 3,9 C 3,9 C 1,5 C 89 % 95 % 1037,2 hPa 0,0 l/m 0,5 km/h (0 Bft) O-NO 67 0 min 0,8 C 3,9 C 0,0 km/h (0 Bft)
17.12.2021 05:05 2,5 C 9,5 C 3,3 C 3,9 C 3,9 C 1,4 C 89 % 95 % 1037,2 hPa 0,0 l/m 0,2 km/h (0 Bft) NW 315 0 min 0,9 C 3,9 C 0,0 km/h (0 Bft)
17.12.2021 05:10 2,4 C 9,5 C 3,4 C 4,0 C 4,0 C 1,6 C 89 % 95 % 1037,6 hPa 0,0 l/m 0,2 km/h (0 Bft) NW 315 0 min 0,8 C 4,0 C 0,0 km/h (0 Bft)
17.12.2021 05:15 2,4 C 9,5 C 3,4 C 4,1 C 4,1 C 1,7 C 89 % 95 % 1037,6 hPa 0,0 l/m 0,0 km/h (0 Bft) NW 315 0 min 0,8 C 4,1 C 0,0 km/h (0 Bft)
17.12.2021 05:20 2,5 C 9,5 C 3,5 C 4,1 C 4,1 C 1,6 C 89 % 95 % 1037,6 hPa 0,0 l/m 0,0 km/h (0 Bft) NW 315 0 min 0,9 C 4,1 C 0,0 km/h (0 Bft)
17.12.2021 05:25 2,5 C 9,5 C 3,5 C 4,2 C 4,2 C 1,7 C 89 % 95 % 1037,6 hPa 0,0 l/m 0,0 km/h (0 Bft) NW 315 0 min 0,9 C 4,2 C 0,0 km/h (0 Bft)
17.12.2021 05:30 2,5 C 9,5 C 3,5 C 4,2 C 4,2 C 1,7 C 89 % 95 % 1037,2 hPa 0,0 l/m 0,0 km/h (0 Bft) NW 315 0 min 0,9 C 4,2 C 0,0 km/h (0 Bft)
17.12.2021 05:35 2,5 C 9,5 C 3,6 C 4,2 C 4,2 C 1,7 C 89 % 95 % 1037,2 hPa 0,0 l/m 0,0 km/h (0 Bft) NW 315 0 min 0,9 C 4,2 C 0,0 km/h (0 Bft)
17.12.2021 05:40 2,5 C 9,5 C 3,6 C 4,2 C 4,2 C 1,7 C 89 % 95 % 1037,2 hPa 0,0 l/m 0,0 km/h (0 Bft) W 270 0 min 0,9 C 4,2 C 0,0 km/h (0 Bft)
17.12.2021 05:45 2,5 C 9,5 C 3,6 C 4,2 C 4,2 C 1,7 C 89 % 95 % 1037,2 hPa 0,0 l/m 0,0 km/h (0 Bft) NW 315 0 min 0,9 C 4,2 C 0,0 km/h (0 Bft)
17.12.2021 05:50 2,5 C 9,5 C 3,6 C 4,2 C 4,2 C 1,7 C 89 % 95 % 1037,2 hPa 0,0 l/m 0,0 km/h (0 Bft) NW 315 0 min 0,9 C 4,2 C 0,0 km/h (0 Bft)
17.12.2021 05:55 2,5 C 9,5 C 3,7 C 4,3 C 4,3 C 1,8 C 89 % 95 % 1037,2 hPa 0,0 l/m 0,3 km/h (0 Bft) W-SW 247 0 min 0,9 C 4,3 C 0,0 km/h (0 Bft)
17.12.2021 06:00 2,5 C 9,5 C 3,7 C 4,3 C 4,3 C 1,8 C 89 % 95 % 1037,2 hPa 0,0 l/m 0,6 km/h (0 Bft) W-SW 247 0 min 0,9 C 4,3 C 2,1 km/h (1 Bft)
17.12.2021 06:05 2,7 C 9,4 C 3,7 C 4,3 C 4,3 C 1,6 C 89 % 95 % 1037,2 hPa 0,0 l/m 1,3 km/h (1 Bft) W-SW 247 0 min 1,1 C 4,3 C 2,1 km/h (1 Bft)
17.12.2021 06:10 2,6 C 9,5 C 3,8 C 4,3 C 4,3 C 1,7 C 89 % 95 % 1037,5 hPa 0,0 l/m 1,6 km/h (1 Bft) SW 225 0 min 1,0 C 4,3 C 2,3 km/h (1 Bft)
17.12.2021 06:15 2,6 C 9,4 C 3,8 C 4,4 C 4,4 C 1,8 C 89 % 95 % 1037,5 hPa 0,0 l/m 1,6 km/h (1 Bft) W-SW 247 0 min 1,0 C 4,4 C 3,1 km/h (1 Bft)
17.12.2021 06:20 2,7 C 9,4 C 3,8 C 4,4 C 4,4 C 1,7 C 89 % 95 % 1037,5 hPa 0,0 l/m 1,9 km/h (1 Bft) SW 225 0 min 1,1 C 4,4 C 3,1 km/h (1 Bft)
17.12.2021 06:25 2,7 C 9,4 C 3,8 C 4,4 C 4,4 C 1,7 C 89 % 95 % 1037,5 hPa 0,0 l/m 2,9 km/h (1 Bft) SW 225 0 min 1,1 C 4,4 C 6,4 km/h (2 Bft)
17.12.2021 06:30 2,7 C 9,4 C 3,8 C 4,0 C 4,0 C 1,3 C 89 % 95 % 1037,1 hPa 0,0 l/m 3,7 km/h (1 Bft) W-SW 247 0 min 1,1 C 4,0 C 4,0 km/h (1 Bft)
17.12.2021 06:35 2,7 C 9,4 C 3,8 C 4,2 C 4,2 C 1,5 C 89 % 95 % 1037,1 hPa 0,0 l/m 3,2 km/h (1 Bft) SW 225 0 min 1,1 C 4,2 C 6,8 km/h (2 Bft)
17.12.2021 06:40 2,7 C 9,4 C 3,8 C 4,3 C 4,3 C 1,6 C 89 % 95 % 1037,1 hPa 0,0 l/m 2,4 km/h (1 Bft) W-SW 247 0 min 1,1 C 4,3 C 2,7 km/h (1 Bft)
17.12.2021 06:45 2,7 C 9,4 C 3,8 C 4,3 C 4,3 C 1,6 C 89 % 95 % 1037,1 hPa 0,0 l/m 2,7 km/h (1 Bft) W-SW 247 0 min 1,1 C 4,3 C 7,4 km/h (2 Bft)
17.12.2021 06:50 2,7 C 9,4 C 3,8 C 4,0 C 4,0 C 1,3 C 89 % 95 % 1037,1 hPa 0,0 l/m 3,4 km/h (1 Bft) SW 225 0 min 1,1 C 4,0 C 6,4 km/h (2 Bft)
17.12.2021 06:55 2,7 C 9,4 C 3,8 C 3,6 C 3,6 C 0,9 C 89 % 95 % 1037,1 hPa 0,0 l/m 4,3 km/h (1 Bft) SW 225 0 min 1,1 C 3,6 C 8,9 km/h (2 Bft)
17.12.2021 07:00 2,7 C 9,4 C 3,7 C 3,3 C 3,3 C 0,6 C 89 % 95 % 1037,1 hPa 0,0 l/m 4,7 km/h (1 Bft) SW 225 0 min 1,1 C 2,3 C 5,0 km/h (1 Bft)
17.12.2021 07:05 2,7 C 9,4 C 3,7 C 3,6 C 3,6 C 0,9 C 89 % 95 % 1037,1 hPa 0,0 l/m 4,2 km/h (1 Bft) SW 225 0 min 1,1 C 3,6 C 6,4 km/h (2 Bft)
17.12.2021 07:10 2,6 C 9,4 C 3,7 C 3,1 C 3,1 C 0,5 C 89 % 95 % 1037,1 hPa 0,0 l/m 5,1 km/h (1 Bft) S-SW 202 0 min 1,0 C 1,9 C 8,4 km/h (2 Bft)
17.12.2021 07:15 2,5 C 9,4 C 3,6 C 2,5 C 2,5 C 0,0 C 89 % 95 % 1037,1 hPa 0,0 l/m 6,4 km/h (2 Bft) W-SW 247 0 min 0,9 C 0,7 C 14,3 km/h (3 Bft)
17.12.2021 07:20 2,4 C 9,4 C 3,5 C 2,8 C 2,8 C 0,4 C 89 % 95 % 1037,1 hPa 0,0 l/m 5,6 km/h (1 Bft) S 180 0 min 0,8 C 1,3 C 6,3 km/h (2 Bft)
17.12.2021 07:25 2,4 C 9,4 C 3,5 C 3,6 C 3,6 C 1,2 C 89 % 95 % 1037,1 hPa 0,0 l/m 3,7 km/h (1 Bft) W 270 0 min 0,8 C 3,6 C 3,7 km/h (1 Bft)
17.12.2021 07:30 2,5 C 9,4 C 3,5 C 3,9 C 3,9 C 1,4 C 89 % 95 % 1037,8 hPa 0,0 l/m 3,1 km/h (1 Bft) W 270 0 min 0,9 C 3,9 C 0,0 km/h (0 Bft)
17.12.2021 07:35 2,4 C 9,4 C 3,5 C 3,8 C 3,8 C 1,4 C 89 % 95 % 1037,8 hPa 0,0 l/m 2,9 km/h (1 Bft) S 180 0 min 0,8 C 3,8 C 2,1 km/h (1 Bft)
17.12.2021 07:40 2,4 C 9,4 C 3,5 C 3,8 C 3,8 C 1,4 C 89 % 95 % 1037,8 hPa 0,0 l/m 3,1 km/h (1 Bft) SW 225 0 min 0,8 C 3,8 C 3,2 km/h (1 Bft)
17.12.2021 07:45 2,4 C 9,4 C 3,5 C 4,0 C 4,0 C 1,6 C 89 % 95 % 1037,8 hPa 0,0 l/m 2,9 km/h (1 Bft) W-SW 247 0 min 0,8 C 4,0 C 3,9 km/h (1 Bft)
17.12.2021 07:50 2,4 C 9,3 C 3,6 C 4,0 C 4,0 C 1,6 C 89 % 95 % 1037,5 hPa 0,0 l/m 2,7 km/h (1 Bft) W-SW 247 0 min 0,8 C 4,0 C 3,2 km/h (1 Bft)
17.12.2021 07:55 2,4 C 9,4 C 3,5 C 4,1 C 4,1 C 1,7 C 89 % 95 % 1037,5 hPa 0,0 l/m 2,1 km/h (1 Bft) SW 225 0 min 0,8 C 4,1 C 1,6 km/h (1 Bft)
17.12.2021 08:00 2,5 C 9,3 C 3,6 C 4,1 C 4,1 C 1,6 C 89 % 95 % 1037,5 hPa 0,0 l/m 2,1 km/h (1 Bft) S-SW 202 0 min 0,9 C 4,1 C 2,7 km/h (1 Bft)
17.12.2021 08:05 2,4 C 9,3 C 3,6 C 4,1 C 4,1 C 1,7 C 89 % 95 % 1037,5 hPa 0,0 l/m 2,7 km/h (1 Bft) S 180 0 min 0,8 C 4,1 C 2,9 km/h (1 Bft)
17.12.2021 08:10 2,5 C 9,3 C 3,7 C 4,1 C 4,1 C 1,6 C 89 % 95 % 1037,5 hPa 0,0 l/m 2,6 km/h (1 Bft) S 180 0 min 0,9 C 4,1 C 0,0 km/h (0 Bft)
17.12.2021 08:15 2,5 C 9,3 C 3,7 C 4,2 C 4,2 C 1,7 C 89 % 95 % 1037,5 hPa 0,0 l/m 1,4 km/h (1 Bft) W 270 0 min 0,9 C 4,2 C 0,0 km/h (0 Bft)
17.12.2021 08:20 2,5 C 9,3 C 3,7 C 4,2 C 4,2 C 1,7 C 89 % 95 % 1037,5 hPa 0,0 l/m 1,3 km/h (1 Bft) W-SW 247 0 min 0,9 C 4,2 C 0,0 km/h (0 Bft)
17.12.2021 08:25 2,5 C 9,3 C 3,7 C 4,3 C 4,3 C 1,8 C 89 % 95 % 1037,5 hPa 0,0 l/m 1,8 km/h (1 Bft) W 270 5 min 0,9 C 4,3 C 2,1 km/h (1 Bft)
17.12.2021 08:30 2,7 C 9,3 C 3,7 C 4,3 C 4,3 C 1,6 C 89 % 95 % 1037,8 hPa 0,0 l/m 1,6 km/h (1 Bft) W-SW 247 5 min 1,1 C 4,3 C 7,6 km/h (2 Bft)
17.12.2021 08:35 2,6 C 9,3 C 3,8 C 4,4 C 4,4 C 1,8 C 89 % 95 % 1037,8 hPa 0,0 l/m 2,4 km/h (1 Bft) W 270 5 min 1,0 C 4,4 C 8,2 km/h (2 Bft)
17.12.2021 08:40 2,7 C 9,3 C 3,8 C 4,4 C 4,4 C 1,7 C 89 % 95 % 1037,8 hPa 0,0 l/m 2,9 km/h (1 Bft) W-SW 247 5 min 1,1 C 4,4 C 5,1 km/h (1 Bft)
17.12.2021 08:45 2,7 C 9,3 C 3,8 C 4,5 C 4,5 C 1,8 C 89 % 95 % 1037,8 hPa 0,0 l/m 2,4 km/h (1 Bft) S-SW 202 5 min 1,1 C 4,5 C 0,0 km/h (0 Bft)
17.12.2021 08:50 2,7 C 9,3 C 3,8 C 4,5 C 4,5 C 1,8 C 89 % 95 % 1037,8 hPa 0,0 l/m 1,8 km/h (1 Bft) S-SW 202 5 min 1,1 C 4,5 C 0,0 km/h (0 Bft)
17.12.2021 08:55 2,7 C 9,3 C 3,8 C 4,5 C 4,5 C 1,8 C 89 % 95 % 1037,8 hPa 0,0 l/m 1,4 km/h (1 Bft) W-NW 292 5 min 1,1 C 4,5 C 3,2 km/h (1 Bft)
17.12.2021 09:00 2,7 C 9,3 C 3,9 C 4,5 C 4,5 C 1,8 C 89 % 95 % 1037,8 hPa 0,0 l/m 1,6 km/h (1 Bft) W-NW 292 5 min 1,1 C 4,5 C 1,6 km/h (1 Bft)
17.12.2021 09:05 2,7 C 9,3 C 3,9 C 4,6 C 4,6 C 1,9 C 89 % 95 % 1037,8 hPa 0,0 l/m 1,4 km/h (1 Bft) SW 225 5 min 1,1 C 4,6 C 3,7 km/h (1 Bft)
17.12.2021 09:10 2,7 C 9,3 C 3,9 C 4,7 C 4,7 C 2,0 C 89 % 95 % 1037,9 hPa 0,0 l/m 1,6 km/h (1 Bft) S-SW 202 5 min 1,1 C 4,7 C 2,9 km/h (1 Bft)
17.12.2021 09:15 2,8 C 9,3 C 4,0 C 4,7 C 4,7 C 1,9 C 89 % 95 % 1037,9 hPa 0,0 l/m 2,6 km/h (1 Bft) SW 225 0 min 1,2 C 4,7 C 2,9 km/h (1 Bft)
17.12.2021 09:20 2,8 C 9,3 C 4,1 C 4,8 C 4,8 C 2,0 C 89 % 95 % 1037,9 hPa 0,0 l/m 2,6 km/h (1 Bft) N-NW 337 0 min 1,2 C 4,8 C 6,1 km/h (2 Bft)
17.12.2021 09:25 2,8 C 9,3 C 4,0 C 5,0 C 5,0 C 2,2 C 89 % 95 % 1037,9 hPa 0,0 l/m 2,4 km/h (1 Bft) W-SW 247 0 min 1,2 C 5,0 C 2,4 km/h (1 Bft)
17.12.2021 09:30 2,8 C 9,2 C 4,0 C 5,0 C 5,0 C 2,2 C 89 % 95 % 1037,9 hPa 0,0 l/m 2,3 km/h (1 Bft) SO 135 0 min 1,2 C 5,0 C 0,0 km/h (0 Bft)
17.12.2021 09:35 2,8 C 9,2 C 4,1 C 5,0 C 5,0 C 2,2 C 89 % 95 % 1037,9 hPa 0,0 l/m 1,9 km/h (1 Bft) SW 225 0 min 1,2 C 5,0 C 3,9 km/h (1 Bft)
17.12.2021 09:40 2,9 C 9,3 C 4,1 C 5,0 C 5,0 C 2,1 C 89 % 95 % 1037,9 hPa 0,0 l/m 1,6 km/h (1 Bft) SW 225 0 min 1,3 C 5,0 C 0,0 km/h (0 Bft)
17.12.2021 09:45 2,9 C 9,3 C 4,1 C 5,0 C 5,0 C 2,1 C 89 % 95 % 1037,9 hPa 0,0 l/m 1,0 km/h (0 Bft) S 180 0 min 1,3 C 5,0 C 2,6 km/h (1 Bft)
17.12.2021 09:50 2,9 C 9,2 C 4,1 C 5,0 C 5,0 C 2,1 C 88 % 95 % 1037,6 hPa 0,0 l/m 2,1 km/h (1 Bft) W 270 0 min 1,1 C 5,0 C 7,6 km/h (2 Bft)
17.12.2021 09:55 2,9 C 9,2 C 4,3 C 4,6 C 4,6 C 1,7 C 89 % 95 % 1037,6 hPa 0,0 l/m 3,9 km/h (1 Bft) W-SW 247 0 min 1,3 C 4,6 C 3,9 km/h (1 Bft)
17.12.2021 10:00 3,0 C 9,2 C 4,3 C 4,6 C 4,6 C 1,6 C 89 % 95 % 1037,6 hPa 0,0 l/m 4,2 km/h (1 Bft) SW 225 0 min 1,4 C 4,6 C 7,9 km/h (2 Bft)
17.12.2021 10:05 3,1 C 9,2 C 4,3 C 4,7 C 4,7 C 1,6 C 89 % 95 % 1037,6 hPa 0,0 l/m 4,0 km/h (1 Bft) S-SW 202 0 min 1,5 C 4,7 C 2,9 km/h (1 Bft)
17.12.2021 10:10 3,0 C 9,2 C 4,3 C 5,2 C 5,2 C 2,2 C 88 % 95 % 1037,4 hPa 0,0 l/m 3,2 km/h (1 Bft) W-SW 247 0 min 1,2 C 5,2 C 3,2 km/h (1 Bft)
17.12.2021 10:15 3,1 C 9,2 C 4,3 C 5,3 C 5,3 C 2,2 C 89 % 95 % 1037,4 hPa 0,0 l/m 2,9 km/h (1 Bft) SW 225 0 min 1,5 C 5,3 C 4,0 km/h (1 Bft)
17.12.2021 10:20 3,2 C 9,2 C 4,3 C 5,1 C 5,1 C 1,9 C 88 % 95 % 1037,4 hPa 0,0 l/m 3,5 km/h (1 Bft) W-SW 247 0 min 1,4 C 5,1 C 2,7 km/h (1 Bft)
17.12.2021 10:25 3,3 C 9,2 C 4,5 C 5,1 C 5,1 C 1,8 C 88 % 94 % 1037,4 hPa 0,0 l/m 3,7 km/h (1 Bft) W-SW 247 0 min 1,5 C 5,1 C 2,3 km/h (1 Bft)
17.12.2021 10:30 3,2 C 9,2 C 4,5 C 5,3 C 5,3 C 2,1 C 88 % 94 % 1037,9 hPa 0,0 l/m 3,2 km/h (1 Bft) W-NW 292 0 min 1,4 C 5,3 C 3,4 km/h (1 Bft)
17.12.2021 10:35 3,3 C 9,2 C 4,5 C 5,5 C 5,5 C 2,2 C 88 % 94 % 1037,9 hPa 0,0 l/m 2,7 km/h (1 Bft) W-SW 247 0 min 1,5 C 5,5 C 1,9 km/h (1 Bft)
17.12.2021 10:40 3,4 C 9,2 C 4,6 C 5,6 C 5,6 C 2,2 C 88 % 94 % 1037,9 hPa 0,0 l/m 2,3 km/h (1 Bft) W-SW 247 0 min 1,6 C 5,6 C 3,9 km/h (1 Bft)
17.12.2021 10:45 3,5 C 9,2 C 4,7 C 5,7 C 5,7 C 2,2 C 88 % 94 % 1037,9 hPa 0,0 l/m 2,3 km/h (1 Bft) N-NW 337 0 min 1,7 C 5,7 C 0,0 km/h (0 Bft)
17.12.2021 10:50 3,5 C 9,2 C 4,7 C 5,7 C 5,7 C 2,2 C 88 % 94 % 1037,9 hPa 0,0 l/m 1,9 km/h (1 Bft) W-SW 247 0 min 1,7 C 5,7 C 2,9 km/h (1 Bft)
17.12.2021 10:55 3,5 C 9,1 C 4,7 C 5,8 C 5,8 C 2,3 C 88 % 94 % 1037,9 hPa 0,0 l/m 1,1 km/h (1 Bft) SW 225 0 min 1,7 C 5,8 C 5,0 km/h (1 Bft)
17.12.2021 11:00 3,6 C 9,2 C 4,7 C 5,9 C 5,9 C 2,3 C 88 % 94 % 1037,9 hPa 0,0 l/m 1,0 km/h (0 Bft) W 270 0 min 1,8 C 5,9 C 0,0 km/h (0 Bft)
17.12.2021 11:05 3,7 C 9,1 C 4,7 C 5,8 C 5,8 C 2,1 C 88 % 94 % 1037,9 hPa 0,0 l/m 2,1 km/h (1 Bft) S-SW 202 0 min 1,9 C 5,8 C 2,7 km/h (1 Bft)
17.12.2021 11:10 3,6 C 9,1 C 4,7 C 5,8 C 5,8 C 2,2 C 88 % 94 % 1037,7 hPa 0,0 l/m 1,9 km/h (1 Bft) W-SW 247 0 min 1,8 C 5,8 C 0,0 km/h (0 Bft)
17.12.2021 11:15 3,7 C 9,1 C 4,8 C 5,9 C 5,9 C 2,2 C 88 % 95 % 1037,7 hPa 0,0 l/m 1,3 km/h (1 Bft) SW 225 0 min 1,9 C 5,9 C 2,3 km/h (1 Bft)
17.12.2021 11:20 3,9 C 9,0 C 4,8 C 6,0 C 6,0 C 2,1 C 88 % 95 % 1037,7 hPa 0,0 l/m 1,3 km/h (1 Bft) SW 225 0 min 2,1 C 6,0 C 2,6 km/h (1 Bft)
17.12.2021 11:25 3,9 C 9,0 C 4,8 C 6,0 C 6,0 C 2,1 C 88 % 95 % 1037,7 hPa 0,0 l/m 2,3 km/h (1 Bft) SO 135 0 min 2,1 C 6,0 C 4,3 km/h (1 Bft)
17.12.2021 11:30 3,9 C 9,0 C 4,9 C 6,0 C 6,0 C 2,1 C 88 % 94 % 1037,9 hPa 0,0 l/m 3,1 km/h (1 Bft) SW 225 0 min 2,1 C 6,0 C 6,0 km/h (2 Bft)
17.12.2021 11:35 4,1 C 9,0 C 4,9 C 6,1 C 6,1 C 2,0 C 88 % 94 % 1037,9 hPa 0,0 l/m 3,2 km/h (1 Bft) S-SW 202 0 min 2,3 C 6,1 C 4,7 km/h (1 Bft)
17.12.2021 11:40 4,0 C 9,0 C 5,0 C 6,1 C 6,1 C 2,1 C 88 % 94 % 1037,9 hPa 0,0 l/m 3,1 km/h (1 Bft) SW 225 0 min 2,2 C 6,1 C 2,4 km/h (1 Bft)
17.12.2021 11:45 4,1 C 9,0 C 5,0 C 6,1 C 6,1 C 2,0 C 88 % 94 % 1037,9 hPa 0,0 l/m 3,5 km/h (1 Bft) W-SW 247 0 min 2,3 C 6,1 C 5,5 km/h (1 Bft)
17.12.2021 11:50 4,2 C 9,0 C 5,0 C 5,8 C 5,8 C 1,6 C 88 % 94 % 1038,0 hPa 0,0 l/m 4,2 km/h (1 Bft) SW 225 0 min 2,4 C 5,8 C 3,5 km/h (1 Bft)
17.12.2021 11:55 4,3 C 9,0 C 5,1 C 5,4 C 5,4 C 1,1 C 88 % 94 % 1038,0 hPa 0,0 l/m 5,0 km/h (1 Bft) SW 225 0 min 2,5 C 4,5 C 7,2 km/h (2 Bft)
17.12.2021 12:00 4,4 C 9,0 C 5,1 C 5,9 C 5,9 C 1,5 C 88 % 94 % 1038,0 hPa 0,0 l/m 4,0 km/h (1 Bft) SW 225 0 min 2,6 C 5,9 C 4,3 km/h (1 Bft)
17.12.2021 12:05 4,5 C 9,0 C 5,1 C 6,1 C 6,1 C 1,6 C 88 % 94 % 1038,0 hPa 0,0 l/m 4,0 km/h (1 Bft) SW 225 0 min 2,7 C 6,1 C 4,7 km/h (1 Bft)
17.12.2021 12:10 4,5 C 9,0 C 5,1 C 6,1 C 6,1 C 1,6 C 88 % 94 % 1037,8 hPa 0,0 l/m 4,0 km/h (1 Bft) SW 225 0 min 2,7 C 6,1 C 4,7 km/h (1 Bft)
17.12.2021 12:15 4,8 C 9,0 C 5,3 C 5,5 C 5,5 C 0,7 C 88 % 94 % 1037,8 hPa 0,0 l/m 5,5 km/h (1 Bft) N 360 0 min 3,0 C 4,5 C 8,5 km/h (2 Bft)
17.12.2021 12:20 4,9 C 9,0 C 5,3 C 5,4 C 5,4 C 0,5 C 89 % 93 % 1037,8 hPa 0,0 l/m 5,8 km/h (2 Bft) SW 225 0 min 3,2 C 4,2 C 4,8 km/h (1 Bft)
17.12.2021 12:25 5,0 C 8,9 C 5,3 C 5,5 C 5,5 C 0,5 C 89 % 93 % 1037,8 hPa 0,0 l/m 5,8 km/h (2 Bft) SW 225 0 min 3,3 C 4,4 C 9,5 km/h (2 Bft)
17.12.2021 12:30 5,3 C 8,9 C 5,3 C 5,7 C 5,7 C 0,4 C 89 % 93 % 1037,8 hPa 0,0 l/m 5,3 km/h (1 Bft) S 180 0 min 3,6 C 4,8 C 3,9 km/h (1 Bft)
17.12.2021 12:35 5,3 C 9,0 C 5,4 C 6,1 C 6,1 C 0,8 C 89 % 93 % 1037,8 hPa 0,0 l/m 4,5 km/h (1 Bft) W-SW 247 0 min 3,6 C 6,1 C 5,0 km/h (1 Bft)
17.12.2021 12:40 5,5 C 9,0 C 5,4 C 6,1 C 6,1 C 0,6 C 89 % 93 % 1037,8 hPa 0,0 l/m 4,5 km/h (1 Bft) SW 225 0 min 3,8 C 6,1 C 5,0 km/h (1 Bft)
17.12.2021 12:45 5,5 C 8,9 C 5,4 C 5,9 C 5,9 C 0,4 C 89 % 93 % 1037,8 hPa 0,0 l/m 5,0 km/h (1 Bft) W-SW 247 0 min 3,8 C 5,1 C 4,2 km/h (1 Bft)
17.12.2021 12:50 5,6 C 8,9 C 5,3 C 5,8 C 5,8 C 0,2 C 89 % 93 % 1038,0 hPa 0,0 l/m 5,3 km/h (1 Bft) W-SW 247 0 min 3,9 C 4,9 C 8,4 km/h (2 Bft)
17.12.2021 12:55 5,6 C 8,9 C 5,3 C 5,6 C 5,6 C 0,0 C 89 % 93 % 1038,0 hPa 0,0 l/m 5,5 km/h (1 Bft) W-SW 247 0 min 3,9 C 4,6 C 8,9 km/h (2 Bft)
17.12.2021 13:00 5,6 C 8,9 C 5,3 C 5,7 C 5,7 C 0,1 C 89 % 93 % 1038,0 hPa 0,0 l/m 5,0 km/h (1 Bft) S 180 0 min 3,9 C 4,9 C 6,0 km/h (2 Bft)
17.12.2021 13:05 5,7 C 8,9 C 5,2 C 5,9 C 5,9 C 0,2 C 89 % 93 % 1038,0 hPa 0,0 l/m 4,2 km/h (1 Bft) SW 225 0 min 4,0 C 5,9 C 5,0 km/h (1 Bft)
17.12.2021 13:10 5,7 C 8,9 C 5,2 C 6,1 C 6,1 C 0,4 C 88 % 93 % 1038,0 hPa 0,0 l/m 4,0 km/h (1 Bft) SW 225 0 min 3,9 C 6,1 C 7,1 km/h (2 Bft)
17.12.2021 13:15 5,7 C 8,9 C 5,3 C 6,3 C 6,3 C 0,6 C 88 % 93 % 1038,0 hPa 0,0 l/m 3,5 km/h (1 Bft) W-SW 247 0 min 3,9 C 6,3 C 2,4 km/h (1 Bft)
17.12.2021 13:20 5,8 C 8,9 C 5,3 C 6,3 C 6,3 C 0,5 C 88 % 93 % 1038,0 hPa 0,0 l/m 3,4 km/h (1 Bft) W-SW 247 0 min 4,0 C 6,3 C 3,2 km/h (1 Bft)
17.12.2021 13:25 5,9 C 8,9 C 5,3 C 6,4 C 6,4 C 0,5 C 88 % 93 % 1038,0 hPa 0,0 l/m 2,4 km/h (1 Bft) S 180 0 min 4,1 C 6,4 C 2,4 km/h (1 Bft)
17.12.2021 13:30 5,9 C 8,8 C 5,3 C 6,4 C 6,4 C 0,5 C 88 % 93 % 1037,7 hPa 0,0 l/m 2,6 km/h (1 Bft) W 270 0 min 4,1 C 6,4 C 5,3 km/h (1 Bft)
17.12.2021 13:35 5,9 C 8,9 C 5,3 C 6,4 C 6,4 C 0,5 C 88 % 93 % 1037,7 hPa 0,0 l/m 2,1 km/h (1 Bft) W 270 0 min 4,1 C 6,4 C 2,9 km/h (1 Bft)
17.12.2021 13:40 5,8 C 8,8 C 5,3 C 6,4 C 6,4 C 0,6 C 88 % 93 % 1037,7 hPa 0,0 l/m 1,4 km/h (1 Bft) W 270 0 min 4,0 C 6,4 C 5,6 km/h (1 Bft)
17.12.2021 13:45 5,9 C 8,8 C 5,3 C 6,4 C 6,4 C 0,5 C 88 % 93 % 1037,7 hPa 0,0 l/m 2,9 km/h (1 Bft) W-SW 247 0 min 4,1 C 6,4 C 2,1 km/h (1 Bft)
17.12.2021 13:50 5,9 C 8,8 C 5,3 C 6,4 C 6,4 C 0,5 C 88 % 93 % 1038,2 hPa 0,0 l/m 2,9 km/h (1 Bft) W-SW 247 0 min 4,1 C 6,4 C 2,9 km/h (1 Bft)
17.12.2021 13:55 5,9 C 8,8 C 5,3 C 6,4 C 6,4 C 0,5 C 88 % 93 % 1038,2 hPa 0,0 l/m 1,1 km/h (1 Bft) SW 225 0 min 4,1 C 6,4 C 1,6 km/h (1 Bft)
17.12.2021 14:00 5,9 C 8,8 C 5,3 C 6,4 C 6,4 C 0,5 C 88 % 93 % 1038,2 hPa 0,0 l/m 1,1 km/h (1 Bft) SW 225 0 min 4,1 C 6,4 C 2,4 km/h (1 Bft)
17.12.2021 14:05 5,9 C 8,8 C 5,3 C 6,4 C 6,4 C 0,5 C 88 % 93 % 1038,2 hPa 0,0 l/m 1,6 km/h (1 Bft) NO 45 0 min 4,1 C 6,4 C 0,0 km/h (0 Bft)
17.12.2021 14:10 5,9 C 8,8 C 5,3 C 6,4 C 6,4 C 0,5 C 88 % 93 % 1037,9 hPa 0,0 l/m 1,4 km/h (1 Bft) W 270 0 min 4,1 C 6,4 C 0,0 km/h (0 Bft)
17.12.2021 14:15 5,9 C 8,8 C 5,3 C 6,4 C 6,4 C 0,5 C 88 % 93 % 1037,9 hPa 0,0 l/m 0,5 km/h (0 Bft) W-SW 247 0 min 4,1 C 6,4 C 3,1 km/h (1 Bft)
17.12.2021 14:20 5,9 C 8,8 C 5,3 C 6,4 C 6,4 C 0,5 C 88 % 93 % 1037,9 hPa 0,0 l/m 0,8 km/h (0 Bft) W-SW 247 0 min 4,1 C 6,4 C 2,1 km/h (1 Bft)
17.12.2021 14:25 5,9 C 8,8 C 5,2 C 6,4 C 6,4 C 0,5 C 88 % 92 % 1037,9 hPa 0,0 l/m 1,1 km/h (1 Bft) W-SW 247 0 min 4,1 C 6,4 C 0,0 km/h (0 Bft)
17.12.2021 14:30 5,8 C 8,8 C 5,2 C 6,4 C 6,4 C 0,6 C 88 % 92 % 1037,9 hPa 0,0 l/m 1,4 km/h (1 Bft) W 270 0 min 4,0 C 6,4 C 6,0 km/h (2 Bft)
17.12.2021 14:35 5,8 C 8,7 C 5,2 C 6,3 C 6,3 C 0,5 C 87 % 92 % 1037,9 hPa 0,0 l/m 1,4 km/h (1 Bft) W-SW 247 0 min 3,8 C 6,3 C 2,1 km/h (1 Bft)
17.12.2021 14:40 5,9 C 8,7 C 5,3 C 6,3 C 6,3 C 0,4 C 87 % 92 % 1037,9 hPa 0,0 l/m 1,3 km/h (1 Bft) W-SW 247 0 min 3,9 C 6,3 C 0,0 km/h (0 Bft)
17.12.2021 14:45 5,9 C 8,7 C 5,2 C 6,3 C 6,3 C 0,4 C 87 % 92 % 1037,9 hPa 0,0 l/m 1,0 km/h (0 Bft) W-SW 247 0 min 3,9 C 6,3 C 1,6 km/h (1 Bft)
17.12.2021 14:50 5,9 C 8,7 C 5,2 C 6,2 C 6,2 C 0,3 C 87 % 92 % 1037,6 hPa 0,0 l/m 0,8 km/h (0 Bft) S 180 0 min 3,9 C 6,2 C 2,7 km/h (1 Bft)
17.12.2021 14:55 5,9 C 8,7 C 5,2 C 6,2 C 6,2 C 0,3 C 87 % 92 % 1037,6 hPa 0,0 l/m 0,6 km/h (0 Bft) N-NW 337 0 min 3,9 C 6,2 C 0,0 km/h (0 Bft)
17.12.2021 15:00 5,9 C 8,7 C 5,2 C 6,2 C 6,2 C 0,3 C 87 % 92 % 1037,6 hPa 0,0 l/m 0,3 km/h (0 Bft) W 270 0 min 3,9 C 6,2 C 0,0 km/h (0 Bft)
17.12.2021 15:05 5,7 C 8,7 C 5,1 C 6,2 C 6,2 C 0,5 C 87 % 92 % 1037,6 hPa 0,0 l/m 0,2 km/h (0 Bft) W 270 0 min 3,7 C 6,2 C 1,6 km/h (1 Bft)
17.12.2021 15:10 5,7 C 8,7 C 5,1 C 6,1 C 6,1 C 0,4 C 87 % 92 % 1037,9 hPa 0,0 l/m 0,2 km/h (0 Bft) W-SW 247 0 min 3,7 C 6,1 C 0,0 km/h (0 Bft)
17.12.2021 15:15 5,7 C 8,7 C 5,1 C 6,1 C 6,1 C 0,4 C 87 % 92 % 1037,9 hPa 0,0 l/m 0,2 km/h (0 Bft) N-NO 22 0 min 3,7 C 6,1 C 0,0 km/h (0 Bft)
17.12.2021 15:20 5,7 C 8,7 C 5,1 C 6,1 C 6,1 C 0,4 C 87 % 92 % 1037,9 hPa 0,0 l/m 0,2 km/h (0 Bft) W-SW 247 0 min 3,7 C 6,1 C 0,0 km/h (0 Bft)
17.12.2021 15:25 5,7 C 8,7 C 5,1 C 6,0 C 6,0 C 0,3 C 87 % 93 % 1037,9 hPa 0,0 l/m 0,5 km/h (0 Bft) N-NW 337 0 min 3,7 C 6,0 C 0,0 km/h (0 Bft)
17.12.2021 15:30 5,7 C 8,7 C 5,1 C 6,0 C 6,0 C 0,3 C 87 % 93 % 1037,6 hPa 0,0 l/m 0,6 km/h (0 Bft) W 270 0 min 3,7 C 6,0 C 0,0 km/h (0 Bft)
17.12.2021 15:35 5,7 C 8,7 C 5,0 C 5,9 C 5,9 C 0,2 C 87 % 93 % 1037,6 hPa 0,0 l/m 0,5 km/h (0 Bft) NW 315 0 min 3,7 C 5,9 C 0,0 km/h (0 Bft)
17.12.2021 15:40 5,7 C 8,7 C 5,0 C 5,9 C 5,9 C 0,2 C 88 % 93 % 1037,6 hPa 0,0 l/m 0,6 km/h (0 Bft) SW 225 0 min 3,9 C 5,9 C 5,5 km/h (1 Bft)
17.12.2021 15:45 5,6 C 8,7 C 5,0 C 5,9 C 5,9 C 0,3 C 88 % 93 % 1037,6 hPa 0,0 l/m 0,3 km/h (0 Bft) W 270 5 min 3,8 C 5,9 C 0,0 km/h (0 Bft)
17.12.2021 15:50 5,6 C 8,7 C 5,0 C 5,9 C 5,9 C 0,3 C 88 % 93 % 1038,1 hPa 0,0 l/m 0,3 km/h (0 Bft) N-NW 337 0 min 3,8 C 5,9 C 0,0 km/h (0 Bft)
17.12.2021 15:55 5,6 C 8,7 C 5,0 C 5,8 C 5,8 C 0,2 C 88 % 93 % 1038,1 hPa 0,0 l/m 0,2 km/h (0 Bft) N-NW 337 0 min 3,8 C 5,8 C 0,0 km/h (0 Bft)
17.12.2021 16:00 5,5 C 8,7 C 4,9 C 5,8 C 5,8 C 0,3 C 88 % 93 % 1038,1 hPa 0,0 l/m 0,0 km/h (0 Bft) NW 315 0 min 3,7 C 5,8 C 0,0 km/h (0 Bft)
17.12.2021 16:05 5,5 C 8,7 C 4,9 C 5,8 C 5,8 C 0,3 C 88 % 93 % 1038,1 hPa 0,0 l/m 0,0 km/h (0 Bft) W-SW 247 0 min 3,7 C 5,8 C 0,0 km/h (0 Bft)
17.12.2021 16:10 5,5 C 8,7 C 4,9 C 5,7 C 5,7 C 0,2 C 88 % 93 % 1037,6 hPa 0,0 l/m 0,0 km/h (0 Bft) W-SW 247 0 min 3,7 C 5,7 C 0,0 km/h (0 Bft)
17.12.2021 16:15 5,4 C 8,7 C 4,8 C 5,7 C 5,7 C 0,3 C 88 % 93 % 1037,6 hPa 0,0 l/m 0,0 km/h (0 Bft) W-SW 247 0 min 3,6 C 5,7 C 0,0 km/h (0 Bft)
17.12.2021 16:20 5,4 C 8,7 C 4,8 C 5,7 C 5,7 C 0,3 C 88 % 93 % 1037,6 hPa 0,0 l/m 0,0 km/h (0 Bft) W-SW 247 0 min 3,6 C 5,7 C 0,0 km/h (0 Bft)
17.12.2021 16:25 5,5 C 8,7 C 4,8 C 5,7 C 5,7 C 0,2 C 88 % 93 % 1037,6 hPa 0,0 l/m 0,0 km/h (0 Bft) SW 225 0 min 3,7 C 5,7 C 0,0 km/h (0 Bft)
17.12.2021 16:30 5,4 C 8,7 C 4,8 C 5,7 C 5,7 C 0,3 C 88 % 93 % 1038,0 hPa 0,0 l/m 0,0 km/h (0 Bft) SW 225 0 min 3,6 C 5,7 C 0,0 km/h (0 Bft)
17.12.2021 16:35 5,5 C 8,7 C 4,8 C 5,7 C 5,7 C 0,2 C 88 % 93 % 1038,0 hPa 0,0 l/m 0,0 km/h (0 Bft) SW 225 0 min 3,7 C 5,7 C 0,0 km/h (0 Bft)
17.12.2021 16:40 5,5 C 8,7 C 4,8 C 5,7 C 5,7 C 0,2 C 88 % 93 % 1038,0 hPa 0,0 l/m 0,0 km/h (0 Bft) SW 225 0 min 3,7 C 5,7 C 0,0 km/h (0 Bft)
17.12.2021 16:45 5,5 C 8,7 C 4,7 C 5,7 C 5,7 C 0,2 C 88 % 93 % 1038,0 hPa 0,0 l/m 0,0 km/h (0 Bft) SW 225 0 min 3,7 C 5,7 C 0,0 km/h (0 Bft)
17.12.2021 16:50 5,5 C 8,7 C 4,7 C 5,7 C 5,7 C 0,2 C 88 % 93 % 1038,0 hPa 0,0 l/m 0,0 km/h (0 Bft) SW 225 0 min 3,7 C 5,7 C 0,0 km/h (0 Bft)
17.12.2021 16:55 5,4 C 8,7 C 4,7 C 5,6 C 5,6 C 0,2 C 88 % 93 % 1038,0 hPa 0,0 l/m 0,0 km/h (0 Bft) SW 225 0 min 3,6 C 5,6 C 0,0 km/h (0 Bft)
17.12.2021 17:00 5,3 C 8,7 C 4,7 C 5,6 C 5,6 C 0,3 C 88 % 93 % 1038,0 hPa 0,0 l/m 0,0 km/h (0 Bft) SW 225 0 min 3,5 C 5,6 C 0,0 km/h (0 Bft)
17.12.2021 17:05 5,3 C 8,8 C 4,7 C 5,6 C 5,6 C 0,3 C 88 % 93 % 1038,0 hPa 0,0 l/m 0,0 km/h (0 Bft) SW 225 0 min 3,5 C 5,6 C 0,0 km/h (0 Bft)
17.12.2021 17:10 5,3 C 8,8 C 4,7 C 5,6 C 5,6 C 0,3 C 88 % 93 % 1037,6 hPa 0,0 l/m 0,0 km/h (0 Bft) SW 225 0 min 3,5 C 5,6 C 0,0 km/h (0 Bft)
17.12.2021 17:15 5,3 C 8,8 C 4,7 C 5,5 C 5,5 C 0,2 C 88 % 93 % 1037,6 hPa 0,0 l/m 0,0 km/h (0 Bft) SW 225 0 min 3,5 C 5,5 C 0,0 km/h (0 Bft)
17.12.2021 17:20 5,3 C 8,8 C 4,7 C 5,5 C 5,5 C 0,2 C 88 % 93 % 1037,6 hPa 0,0 l/m 0,0 km/h (0 Bft) SW 225 0 min 3,5 C 5,5 C 0,0 km/h (0 Bft)
17.12.2021 17:25 5,3 C 8,8 C 4,7 C 5,4 C 5,4 C 0,1 C 88 % 93 % 1037,6 hPa 0,0 l/m 0,0 km/h (0 Bft) SW 225 0 min 3,5 C 5,4 C 0,0 km/h (0 Bft)
17.12.2021 17:30 5,2 C 8,8 C 4,7 C 5,4 C 5,4 C 0,2 C 88 % 93 % 1037,7 hPa 0,0 l/m 0,0 km/h (0 Bft) SW 225 0 min 3,4 C 5,4 C 0,0 km/h (0 Bft)
17.12.2021 17:35 5,2 C 8,8 C 4,7 C 5,4 C 5,4 C 0,2 C 88 % 93 % 1037,7 hPa 0,0 l/m 0,0 km/h (0 Bft) SW 225 0 min 3,4 C 5,4 C 0,0 km/h (0 Bft)
17.12.2021 17:40 5,3 C 8,8 C 4,6 C 5,4 C 5,4 C 0,1 C 88 % 93 % 1037,7 hPa 0,0 l/m 0,0 km/h (0 Bft) SW 225 0 min 3,5 C 5,4 C 0,0 km/h (0 Bft)
17.12.2021 17:45 5,2 C 8,8 C 4,6 C 5,3 C 5,3 C 0,1 C 88 % 93 % 1037,7 hPa 0,0 l/m 0,0 km/h (0 Bft) SW 225 0 min 3,4 C 5,3 C 0,0 km/h (0 Bft)
17.12.2021 17:50 5,2 C 8,8 C 4,6 C 5,4 C 5,4 C 0,2 C 88 % 93 % 1037,7 hPa 0,0 l/m 0,0 km/h (0 Bft) SW 225 0 min 3,4 C 5,4 C 0,0 km/h (0 Bft)
17.12.2021 17:55 5,2 C 8,8 C 4,6 C 5,4 C 5,4 C 0,2 C 89 % 93 % 1037,7 hPa 0,0 l/m 0,0 km/h (0 Bft) SW 225 0 min 3,5 C 5,4 C 0,0 km/h (0 Bft)
17.12.2021 18:00 5,3 C 8,8 C 4,6 C 5,4 C 5,4 C 0,1 C 88 % 93 % 1037,7 hPa 0,0 l/m 0,0 km/h (0 Bft) SW 225 0 min 3,5 C 5,4 C 0,0 km/h (0 Bft)
17.12.2021 18:05 5,2 C 8,8 C 4,6 C 5,4 C 5,4 C 0,2 C 89 % 93 % 1037,7 hPa 0,0 l/m 0,0 km/h (0 Bft) SW 225 0 min 3,5 C 5,4 C 0,0 km/h (0 Bft)
17.12.2021 18:10 5,2 C 8,9 C 4,6 C 5,3 C 5,3 C 0,1 C 89 % 93 % 1037,7 hPa 0,0 l/m 0,0 km/h (0 Bft) SW 225 0 min 3,5 C 5,3 C 0,0 km/h (0 Bft)
17.12.2021 18:15 5,1 C 8,9 C 4,6 C 5,3 C 5,3 C 0,2 C 89 % 93 % 1037,7 hPa 0,0 l/m 0,0 km/h (0 Bft) SW 225 0 min 3,4 C 5,3 C 0,0 km/h (0 Bft)
17.12.2021 18:20 5,1 C 8,9 C 4,6 C 5,3 C 5,3 C 0,2 C 89 % 93 % 1037,7 hPa 0,0 l/m 0,0 km/h (0 Bft) SW 225 0 min 3,4 C 5,3 C 0,0 km/h (0 Bft)
17.12.2021 18:25 5,1 C 8,9 C 4,6 C 5,3 C 5,3 C 0,2 C 89 % 94 % 1037,7 hPa 0,0 l/m 0,0 km/h (0 Bft) SW 225 0 min 3,4 C 5,3 C 2,6 km/h (1 Bft)
17.12.2021 18:30 5,1 C 8,9 C 4,6 C 5,3 C 5,3 C 0,2 C 89 % 94 % 1037,7 hPa 0,0 l/m 0,2 km/h (0 Bft) W-SW 247 0 min 3,4 C 5,3 C 0,0 km/h (0 Bft)
17.12.2021 18:35 5,1 C 8,9 C 4,6 C 5,4 C 5,4 C 0,3 C 89 % 94 % 1037,7 hPa 0,0 l/m 0,2 km/h (0 Bft) W 270 0 min 3,4 C 5,4 C 0,0 km/h (0 Bft)
17.12.2021 18:40 5,0 C 8,9 C 4,6 C 5,4 C 5,4 C 0,4 C 89 % 94 % 1037,7 hPa 0,0 l/m 0,2 km/h (0 Bft) W-SW 247 0 min 3,3 C 5,4 C 0,0 km/h (0 Bft)
17.12.2021 18:45 5,1 C 8,9 C 4,6 C 5,4 C 5,4 C 0,3 C 89 % 94 % 1037,7 hPa 0,0 l/m 0,3 km/h (0 Bft) W-SW 247 0 min 3,4 C 5,4 C 2,1 km/h (1 Bft)
17.12.2021 18:50 5,1 C 8,9 C 4,5 C 5,4 C 5,4 C 0,3 C 89 % 94 % 1037,7 hPa 0,0 l/m 0,5 km/h (0 Bft) W 270 0 min 3,4 C 5,4 C 0,0 km/h (0 Bft)
17.12.2021 18:55 5,1 C 8,9 C 4,6 C 5,4 C 5,4 C 0,3 C 89 % 94 % 1037,7 hPa 0,0 l/m 0,2 km/h (0 Bft) W-SW 247 0 min 3,4 C 5,4 C 0,0 km/h (0 Bft)
17.12.2021 19:00 5,1 C 8,9 C 4,6 C 5,4 C 5,4 C 0,3 C 89 % 94 % 1037,7 hPa 0,0 l/m 0,0 km/h (0 Bft) W-SW 247 0 min 3,4 C 5,4 C 0,0 km/h (0 Bft)
17.12.2021 19:05 5,1 C 8,9 C 4,5 C 5,4 C 5,4 C 0,3 C 89 % 94 % 1037,7 hPa 0,0 l/m 0,0 km/h (0 Bft) SW 225 0 min 3,4 C 5,4 C 0,0 km/h (0 Bft)
17.12.2021 19:10 4,9 C 8,9 C 4,5 C 5,4 C 5,4 C 0,5 C 89 % 94 % 1037,9 hPa 0,0 l/m 0,0 km/h (0 Bft) W-SW 247 0 min 3,2 C 5,4 C 0,0 km/h (0 Bft)
17.12.2021 19:15 4,9 C 8,9 C 4,5 C 5,4 C 5,4 C 0,5 C 89 % 94 % 1037,9 hPa 0,0 l/m 0,0 km/h (0 Bft) W-SW 247 0 min 3,2 C 5,4 C 0,0 km/h (0 Bft)
17.12.2021 19:20 4,9 C 8,9 C 4,5 C 5,4 C 5,4 C 0,5 C 89 % 94 % 1037,9 hPa 0,0 l/m 0,0 km/h (0 Bft) SW 225 0 min 3,2 C 5,4 C 0,0 km/h (0 Bft)
17.12.2021 19:25 4,9 C 8,9 C 4,5 C 5,4 C 5,4 C 0,5 C 89 % 94 % 1037,9 hPa 0,0 l/m 0,0 km/h (0 Bft) SW 225 0 min 3,2 C 5,4 C 0,0 km/h (0 Bft)
17.12.2021 19:30 4,9 C 8,9 C 4,5 C 5,3 C 5,3 C 0,4 C 89 % 94 % 1037,6 hPa 0,0 l/m 0,0 km/h (0 Bft) W-SW 247 0 min 3,2 C 5,3 C 0,0 km/h (0 Bft)
17.12.2021 19:35 4,9 C 8,9 C 4,4 C 5,3 C 5,3 C 0,4 C 89 % 94 % 1037,6 hPa 0,0 l/m 0,0 km/h (0 Bft) W-SW 247 0 min 3,2 C 5,3 C 0,0 km/h (0 Bft)
17.12.2021 19:40 4,8 C 8,9 C 4,4 C 5,3 C 5,3 C 0,5 C 88 % 94 % 1037,6 hPa 0,0 l/m 0,0 km/h (0 Bft) W-SW 247 0 min 3,0 C 5,3 C 0,0 km/h (0 Bft)
17.12.2021 19:45 4,8 C 8,9 C 4,4 C 5,3 C 5,3 C 0,5 C 88 % 94 % 1037,6 hPa 0,0 l/m 0,0 km/h (0 Bft) W-SW 247 0 min 3,0 C 5,3 C 0,0 km/h (0 Bft)
17.12.2021 19:50 4,8 C 8,9 C 4,5 C 5,3 C 5,3 C 0,5 C 88 % 94 % 1037,6 hPa 0,0 l/m 0,0 km/h (0 Bft) W-SW 247 0 min 3,0 C 5,3 C 0,0 km/h (0 Bft)
17.12.2021 19:55 4,8 C 8,9 C 4,5 C 5,4 C 5,4 C 0,6 C 88 % 94 % 1037,6 hPa 0,0 l/m 0,0 km/h (0 Bft) W-SW 247 0 min 3,0 C 5,4 C 0,0 km/h (0 Bft)
17.12.2021 20:00 4,8 C 8,9 C 4,5 C 5,4 C 5,4 C 0,6 C 88 % 94 % 1037,6 hPa 0,0 l/m 0,2 km/h (0 Bft) W-SW 247 0 min 3,0 C 5,4 C 0,0 km/h (0 Bft)
17.12.2021 20:05 4,9 C 8,9 C 4,5 C 5,4 C 5,4 C 0,5 C 89 % 94 % 1037,6 hPa 0,0 l/m 0,3 km/h (0 Bft) W-SW 247 0 min 3,2 C 5,4 C 0,0 km/h (0 Bft)
17.12.2021 20:10 4,8 C 8,9 C 4,5 C 5,4 C 5,4 C 0,6 C 88 % 94 % 1037,6 hPa 0,0 l/m 0,3 km/h (0 Bft) SW 225 0 min 3,0 C 5,4 C 0,0 km/h (0 Bft)
17.12.2021 20:15 4,8 C 8,9 C 4,5 C 5,3 C 5,3 C 0,5 C 88 % 94 % 1037,6 hPa 0,0 l/m 0,2 km/h (0 Bft) W-SW 247 0 min 3,0 C 5,3 C 0,0 km/h (0 Bft)
17.12.2021 20:20 4,7 C 8,9 C 4,5 C 5,3 C 5,3 C 0,6 C 88 % 94 % 1037,6 hPa 0,0 l/m 0,2 km/h (0 Bft) SW 225 0 min 2,9 C 5,3 C 0,0 km/h (0 Bft)
17.12.2021 20:25 4,7 C 8,9 C 4,5 C 5,2 C 5,2 C 0,5 C 88 % 94 % 1037,6 hPa 0,0 l/m 0,2 km/h (0 Bft) W-NW 292 0 min 2,9 C 5,2 C 1,6 km/h (1 Bft)
17.12.2021 20:30 4,7 C 8,9 C 4,5 C 5,2 C 5,2 C 0,5 C 88 % 94 % 1038,1 hPa 0,0 l/m 0,2 km/h (0 Bft) W-SW 247 0 min 2,9 C 5,2 C 0,0 km/h (0 Bft)
17.12.2021 20:35 4,7 C 8,9 C 4,5 C 5,3 C 5,3 C 0,6 C 88 % 94 % 1038,1 hPa 0,0 l/m 0,6 km/h (0 Bft) S-SW 202 0 min 2,9 C 5,3 C 2,6 km/h (1 Bft)
17.12.2021 20:40 4,7 C 8,9 C 4,6 C 5,3 C 5,3 C 0,6 C 88 % 94 % 1038,1 hPa 0,0 l/m 0,6 km/h (0 Bft) W-SW 247 0 min 2,9 C 5,3 C 1,9 km/h (1 Bft)
17.12.2021 20:45 4,7 C 8,9 C 4,5 C 5,3 C 5,3 C 0,6 C 88 % 94 % 1038,1 hPa 0,0 l/m 0,8 km/h (0 Bft) W-SW 247 0 min 2,9 C 5,3 C 2,6 km/h (1 Bft)
17.12.2021 20:50 4,7 C 8,9 C 4,6 C 5,4 C 5,4 C 0,7 C 88 % 94 % 1038,1 hPa 0,0 l/m 1,4 km/h (1 Bft) W-NW 292 0 min 2,9 C 5,4 C 0,0 km/h (0 Bft)
17.12.2021 20:55 4,7 C 8,9 C 4,6 C 5,4 C 5,4 C 0,7 C 88 % 94 % 1038,1 hPa 0,0 l/m 1,3 km/h (1 Bft) SW 225 0 min 2,9 C 5,4 C 0,0 km/h (0 Bft)
17.12.2021 21:00 4,7 C 8,9 C 4,6 C 5,4 C 5,4 C 0,7 C 88 % 94 % 1038,1 hPa 0,0 l/m 0,8 km/h (0 Bft) S 180 0 min 2,9 C 5,4 C 0,0 km/h (0 Bft)
17.12.2021 21:05 4,6 C 8,9 C 4,6 C 5,4 C 5,4 C 0,8 C 88 % 94 % 1038,1 hPa 0,0 l/m 1,0 km/h (0 Bft) W-SW 247 0 min 2,8 C 5,4 C 2,9 km/h (1 Bft)
17.12.2021 21:10 4,6 C 8,8 C 4,6 C 5,3 C 5,3 C 0,7 C 88 % 94 % 1038,2 hPa 0,0 l/m 1,0 km/h (0 Bft) SW 225 0 min 2,8 C 5,3 C 3,7 km/h (1 Bft)
17.12.2021 21:15 4,7 C 8,8 C 4,5 C 5,3 C 5,3 C 0,6 C 88 % 94 % 1038,2 hPa 0,0 l/m 1,0 km/h (0 Bft) W-NW 292 0 min 2,9 C 5,3 C 2,4 km/h (1 Bft)
17.12.2021 21:20 4,7 C 8,8 C 4,5 C 5,2 C 5,2 C 0,5 C 88 % 94 % 1038,2 hPa 0,0 l/m 1,0 km/h (0 Bft) S 180 0 min 2,9 C 5,2 C 0,0 km/h (0 Bft)
17.12.2021 21:25 4,7 C 8,9 C 4,5 C 5,2 C 5,2 C 0,5 C 88 % 94 % 1038,2 hPa 0,0 l/m 0,8 km/h (0 Bft) W-SW 247 0 min 2,9 C 5,2 C 0,0 km/h (0 Bft)
17.12.2021 21:30 4,7 C 8,9 C 4,5 C 5,2 C 5,2 C 0,5 C 88 % 94 % 1038,2 hPa 0,0 l/m 0,6 km/h (0 Bft) W-SW 247 0 min 2,9 C 5,2 C 0,0 km/h (0 Bft)
17.12.2021 21:35 4,6 C 8,9 C 4,5 C 5,2 C 5,2 C 0,6 C 88 % 94 % 1038,2 hPa 0,0 l/m 1,0 km/h (0 Bft) W-SW 247 0 min 2,8 C 5,2 C 2,6 km/h (1 Bft)
17.12.2021 21:40 4,5 C 8,9 C 4,5 C 5,1 C 5,1 C 0,6 C 88 % 94 % 1038,2 hPa 0,0 l/m 1,3 km/h (1 Bft) SW 225 0 min 2,7 C 5,1 C 2,3 km/h (1 Bft)
17.12.2021 21:45 4,5 C 8,9 C 4,4 C 5,1 C 5,1 C 0,6 C 88 % 94 % 1038,2 hPa 0,0 l/m 1,3 km/h (1 Bft) W-SW 247 0 min 2,7 C 5,1 C 2,7 km/h (1 Bft)
17.12.2021 21:50 4,4 C 8,9 C 4,4 C 5,0 C 5,0 C 0,6 C 88 % 94 % 1038,7 hPa 0,0 l/m 1,1 km/h (1 Bft) W-SW 247 0 min 2,6 C 5,0 C 6,1 km/h (2 Bft)
17.12.2021 21:55 4,4 C 8,9 C 4,4 C 5,0 C 5,0 C 0,6 C 88 % 94 % 1038,7 hPa 0,0 l/m 1,3 km/h (1 Bft) W-SW 247 0 min 2,6 C 5,0 C 5,6 km/h (1 Bft)
17.12.2021 22:00 4,4 C 8,9 C 4,3 C 5,0 C 5,0 C 0,6 C 88 % 94 % 1038,7 hPa 0,0 l/m 1,4 km/h (1 Bft) SW 225 0 min 2,6 C 5,0 C 5,0 km/h (1 Bft)
17.12.2021 22:05 4,4 C 8,9 C 4,3 C 5,0 C 5,0 C 0,6 C 88 % 94 % 1038,7 hPa 0,0 l/m 1,6 km/h (1 Bft) W-SW 247 0 min 2,6 C 5,0 C 4,2 km/h (1 Bft)
17.12.2021 22:10 4,3 C 8,9 C 4,3 C 5,0 C 5,0 C 0,7 C 89 % 94 % 1038,4 hPa 0,0 l/m 2,1 km/h (1 Bft) S 180 0 min 2,7 C 5,0 C 0,0 km/h (0 Bft)
17.12.2021 22:15 4,3 C 8,9 C 4,3 C 4,8 C 4,8 C 0,5 C 88 % 94 % 1038,4 hPa 0,0 l/m 1,8 km/h (1 Bft) NW 315 0 min 2,5 C 4,8 C 4,5 km/h (1 Bft)
17.12.2021 22:20 4,3 C 8,9 C 4,3 C 4,8 C 4,8 C 0,5 C 89 % 94 % 1038,4 hPa 0,0 l/m 0,8 km/h (0 Bft) W-SW 247 0 min 2,7 C 4,8 C 3,7 km/h (1 Bft)
17.12.2021 22:25 4,3 C 8,9 C 4,3 C 4,7 C 4,7 C 0,4 C 89 % 94 % 1038,4 hPa 0,0 l/m 0,5 km/h (0 Bft) W 270 0 min 2,7 C 4,7 C 0,0 km/h (0 Bft)
17.12.2021 22:30 4,3 C 8,9 C 4,2 C 4,7 C 4,7 C 0,4 C 89 % 94 % 1038,4 hPa 0,0 l/m 0,2 km/h (0 Bft) W-SW 247 0 min 2,7 C 4,7 C 1,8 km/h (1 Bft)
17.12.2021 22:35 4,1 C 8,9 C 4,2 C 4,7 C 4,7 C 0,6 C 89 % 94 % 1038,4 hPa 0,0 l/m 0,0 km/h (0 Bft) W 270 0 min 2,5 C 4,7 C 0,0 km/h (0 Bft)
17.12.2021 22:40 4,1 C 8,9 C 4,2 C 4,7 C 4,7 C 0,6 C 89 % 94 % 1038,4 hPa 0,0 l/m 0,0 km/h (0 Bft) W 270 0 min 2,5 C 4,7 C 0,0 km/h (0 Bft)
17.12.2021 22:45 4,1 C 8,9 C 4,1 C 4,7 C 4,7 C 0,6 C 89 % 94 % 1038,4 hPa 0,0 l/m 0,0 km/h (0 Bft) W 270 0 min 2,5 C 4,7 C 0,0 km/h (0 Bft)
17.12.2021 22:50 4,1 C 8,9 C 4,1 C 4,7 C 4,7 C 0,6 C 89 % 94 % 1038,4 hPa 0,0 l/m 0,0 km/h (0 Bft) W 270 0 min 2,5 C 4,7 C 0,0 km/h (0 Bft)
17.12.2021 22:55 4,0 C 8,9 C 4,1 C 4,7 C 4,7 C 0,7 C 89 % 94 % 1038,4 hPa 0,0 l/m 0,0 km/h (0 Bft) SW 225 0 min 2,4 C 4,7 C 0,0 km/h (0 Bft)
17.12.2021 23:00 4,0 C 8,8 C 4,1 C 4,7 C 4,7 C 0,7 C 89 % 94 % 1038,4 hPa 0,0 l/m 0,0 km/h (0 Bft) W-SW 247 0 min 2,4 C 4,7 C 0,0 km/h (0 Bft)
17.12.2021 23:05 4,1 C 8,9 C 4,1 C 4,7 C 4,7 C 0,6 C 89 % 94 % 1038,4 hPa 0,0 l/m 0,0 km/h (0 Bft) SW 225 0 min 2,5 C 4,7 C 0,0 km/h (0 Bft)
17.12.2021 23:10 4,1 C 8,8 C 4,2 C 4,7 C 4,7 C 0,6 C 89 % 94 % 1038,7 hPa 0,0 l/m 0,0 km/h (0 Bft) SW 225 0 min 2,5 C 4,7 C 0,0 km/h (0 Bft)
17.12.2021 23:15 4,0 C 8,8 C 4,1 C 4,7 C 4,7 C 0,7 C 89 % 94 % 1038,7 hPa 0,0 l/m 0,0 km/h (0 Bft) SW 225 0 min 2,4 C 4,7 C 2,3 km/h (1 Bft)
17.12.2021 23:20 4,0 C 8,8 C 4,1 C 4,7 C 4,7 C 0,7 C 89 % 94 % 1038,7 hPa 0,0 l/m 0,0 km/h (0 Bft) W-SW 247 0 min 2,4 C 4,7 C 0,0 km/h (0 Bft)
17.12.2021 23:25 4,0 C 8,8 C 4,1 C 4,7 C 4,7 C 0,7 C 89 % 94 % 1038,7 hPa 0,0 l/m 0,2 km/h (0 Bft) SW 225 0 min 2,4 C 4,7 C 0,0 km/h (0 Bft)
17.12.2021 23:30 4,0 C 8,9 C 4,1 C 4,7 C 4,7 C 0,7 C 89 % 94 % 1038,7 hPa 0,0 l/m 0,0 km/h (0 Bft) SW 225 0 min 2,4 C 4,7 C 0,0 km/h (0 Bft)
17.12.2021 23:35 4,0 C 8,9 C 4,1 C 4,7 C 4,7 C 0,7 C 89 % 94 % 1038,7 hPa 0,0 l/m 0,0 km/h (0 Bft) SW 225 0 min 2,4 C 4,7 C 0,0 km/h (0 Bft)
17.12.2021 23:40 4,0 C 8,9 C 4,1 C 4,7 C 4,7 C 0,7 C 89 % 94 % 1038,7 hPa 0,0 l/m 0,0 km/h (0 Bft) S 180 0 min 2,4 C 4,7 C 0,0 km/h (0 Bft)
17.12.2021 23:45 3,9 C 8,9 C 4,1 C 4,7 C 4,7 C 0,8 C 89 % 94 % 1038,7 hPa 0,0 l/m 0,0 km/h (0 Bft) W-SW 247 0 min 2,3 C 4,7 C 0,0 km/h (0 Bft)
17.12.2021 23:50 3,9 C 8,9 C 4,1 C 4,7 C 4,7 C 0,8 C 89 % 94 % 1038,4 hPa 0,0 l/m 0,0 km/h (0 Bft) S-SW 202 0 min 2,3 C 4,7 C 0,0 km/h (0 Bft)
17.12.2021 23:55 4,0 C 8,9 C 4,1 C 4,7 C 4,7 C 0,7 C 89 % 94 % 1038,4 hPa 0,0 l/m 0,3 km/h (0 Bft) SW 225 0 min 2,4 C 4,7 C 1,8 km/h (1 Bft)
_ Min-Zeit 00:00 14:35 03:40 07:15 07:15 07:15 14:35 14:25 06:30 - 00:00 - - - 00:00 07:15 00:00
Minimum _ 2,1 C 8,7 C 2,2 C 2,5 C 2,5 C 0,0 C 87 % 92 % 1037,1 hPa - 0,0 km/h (0 Bft) - - - 0,3 C 0,7 C 0,0 km/h (0 Bft)
_ Max-Zeit 13:25 00:00 12:35 13:25 13:25 10:55 00:10 00:00 21:50 00:00 07:15 - - 08:25 13:25 13:25 07:15
Maximum _ 5,9 C 9,8 C 5,4 C 6,4 C 6,4 C 2,3 C 89 % 95 % 1038,7 hPa 0,0 l/m 6,4 km/h
W-SW (2 Bft)
- - 5 min 4,1 C 6,4 C 14,3 km/h
W-SW (3 Bft)
Durchschnitt _ 3,9 C 9,1 C 4,2 C 5,0 C 5,0 C 1,0 C 88 % 94 % 1037,8 hPa #0,0 l/m 1,2 km/h (1 Bft) SW - #55 min. 2,2 C 4,9 C 1,7 km/h (1 Bft)
2021 www.wetterstation-wechselburg.de